createdAt,value
2019-03-23T00:00:04.156Z,5.78
2019-03-23T00:00:08.465Z,5.78
2019-03-23T00:00:12.761Z,5.78
2019-03-23T00:00:16.965Z,5.78
2019-03-23T00:00:21.258Z,5.78
2019-03-23T00:00:25.549Z,5.78
2019-03-23T00:00:29.746Z,5.78
2019-03-23T00:00:34.034Z,5.78
2019-03-23T00:00:38.328Z,5.78
2019-03-23T00:00:42.429Z,5.77
2019-03-23T00:00:46.721Z,5.78
2019-03-23T00:00:50.830Z,5.78
2019-03-23T00:00:55.174Z,5.78
2019-03-23T00:00:59.465Z,5.78
2019-03-23T00:01:03.765Z,5.78
2019-03-23T00:01:08.058Z,5.77
2019-03-23T00:01:12.248Z,5.78
2019-03-23T00:01:16.449Z,5.77
2019-03-23T00:01:20.774Z,5.78
2019-03-23T00:01:25.073Z,5.77
2019-03-23T00:01:29.364Z,5.77
2019-03-23T00:01:33.659Z,5.78
2019-03-23T00:01:37.957Z,5.78
2019-03-23T00:01:42.311Z,5.78
2019-03-23T00:01:46.611Z,5.78
2019-03-23T00:01:50.895Z,5.78
2019-03-23T00:01:55.104Z,5.77
2019-03-23T00:01:59.403Z,5.77
2019-03-23T00:02:03.745Z,5.77
2019-03-23T00:02:07.936Z,5.78
2019-03-23T00:02:12.233Z,5.77
2019-03-23T00:02:16.428Z,5.77
2019-03-23T00:02:20.745Z,5.77
2019-03-23T00:02:25.040Z,5.78
2019-03-23T00:02:29.240Z,5.77
2019-03-23T00:02:33.529Z,5.76
2019-03-23T00:02:37.819Z,5.77
2019-03-23T00:02:42.141Z,5.77
2019-03-23T00:02:46.367Z,5.77
2019-03-23T00:02:50.687Z,5.78
2019-03-23T00:02:54.882Z,5.77
2019-03-23T00:02:59.222Z,5.77
2019-03-23T00:03:03.515Z,5.77
2019-03-23T00:03:07.820Z,5.77
2019-03-23T00:03:12.116Z,5.77
2019-03-23T00:03:16.411Z,5.77
2019-03-23T00:03:20.708Z,5.77
2019-03-23T00:03:24.900Z,5.77
2019-03-23T00:03:29.194Z,5.76
2019-03-23T00:03:33.480Z,5.77
2019-03-23T00:03:37.775Z,5.77
2019-03-23T00:03:42.065Z,5.76
2019-03-23T00:03:46.354Z,5.77
2019-03-23T00:03:50.688Z,5.76
2019-03-23T00:03:54.974Z,5.77
2019-03-23T00:03:59.321Z,5.77
2019-03-23T00:04:03.620Z,5.77
2019-03-23T00:04:07.911Z,5.76
2019-03-23T00:04:12.208Z,5.76
2019-03-23T00:04:16.507Z,5.77
2019-03-23T00:04:20.796Z,5.76
2019-03-23T00:04:27.583Z,5.77
2019-03-23T00:04:31.888Z,5.76
2019-03-23T00:04:36.184Z,5.76
2019-03-23T00:04:40.382Z,5.76
2019-03-23T00:04:44.671Z,5.76
2019-03-23T00:04:48.960Z,5.77
2019-03-23T00:04:53.186Z,5.76
2019-03-23T00:04:57.377Z,5.76
2019-03-23T00:05:01.742Z,5.76
2019-03-23T00:05:05.941Z,5.76
2019-03-23T00:05:10.253Z,5.76
2019-03-23T00:05:14.545Z,5.75
2019-03-23T00:05:18.836Z,5.76
2019-03-23T00:05:23.134Z,5.75
2019-03-23T00:05:27.435Z,5.76
2019-03-23T00:05:31.726Z,5.76
2019-03-23T00:05:36.019Z,5.76
2019-03-23T00:05:40.312Z,5.74
2019-03-23T00:05:44.606Z,5.75
2019-03-23T00:05:48.894Z,5.75
2019-03-23T00:05:53.090Z,5.75
2019-03-23T00:05:57.403Z,5.75
2019-03-23T00:06:01.705Z,5.75
2019-03-23T00:06:05.994Z,5.75
2019-03-23T00:06:10.299Z,5.75
2019-03-23T00:06:14.596Z,5.75
2019-03-23T00:06:18.785Z,5.75
2019-03-23T00:06:34.105Z,5.74
2019-03-23T00:06:38.447Z,5.74
2019-03-23T00:06:42.736Z,5.75
2019-03-23T00:06:46.925Z,5.74
2019-03-23T00:06:51.207Z,5.75
2019-03-23T00:06:55.498Z,5.74
2019-03-23T00:06:59.738Z,5.74
2019-03-23T00:07:04.196Z,5.74
2019-03-23T00:07:08.506Z,5.74
2019-03-23T00:07:12.800Z,5.73
2019-03-23T00:07:17.097Z,5.73
2019-03-23T00:07:21.290Z,5.74
2019-03-23T00:07:25.582Z,5.74
2019-03-23T00:07:29.876Z,5.74
2019-03-23T00:07:34.169Z,5.74
2019-03-23T00:07:38.459Z,5.74
2019-03-23T00:07:42.748Z,5.73
2019-03-23T00:07:46.938Z,5.74
2019-03-23T00:07:51.238Z,5.74
2019-03-23T00:07:55.532Z,5.73
2019-03-23T00:07:59.829Z,5.73
2019-03-23T00:08:04.052Z,5.73
2019-03-23T00:08:08.343Z,5.73
2019-03-23T00:08:44.644Z,5.72
2019-03-23T00:08:48.930Z,5.71
2019-03-23T00:08:53.120Z,5.72
2019-03-23T00:08:57.413Z,5.73
2019-03-23T00:09:01.701Z,5.71
2019-03-23T00:09:06.062Z,5.72
2019-03-23T00:09:10.354Z,5.71
2019-03-23T00:09:14.647Z,5.71
2019-03-23T00:09:18.936Z,5.71
2019-03-23T00:09:23.231Z,5.71
2019-03-23T00:09:27.574Z,5.71
2019-03-23T00:09:31.875Z,5.7
2019-03-23T00:09:36.066Z,5.71
2019-03-23T00:09:40.370Z,5.7
2019-03-23T00:09:44.562Z,5.71
2019-03-23T00:09:48.763Z,5.71
2019-03-23T00:09:53.079Z,5.7
2019-03-23T00:09:59.474Z,5.7
2019-03-23T00:10:04.053Z,5.69
2019-03-23T00:10:08.279Z,5.69
2019-03-23T00:10:12.587Z,5.69
2019-03-23T00:10:16.782Z,5.69
2019-03-23T00:10:20.978Z,5.68
2019-03-23T00:10:25.321Z,5.68
2019-03-23T00:10:29.627Z,5.68
2019-03-23T00:10:33.926Z,5.68
2019-03-23T00:10:38.229Z,5.68
2019-03-23T00:10:42.427Z,5.67
2019-03-23T00:10:46.630Z,5.67
2019-03-23T00:10:50.838Z,5.68
2019-03-23T00:10:55.122Z,5.68
2019-03-23T00:10:59.413Z,5.67
2019-03-23T00:11:03.715Z,5.67
2019-03-23T00:11:08.017Z,5.67
2019-03-23T00:11:12.331Z,5.67
2019-03-23T00:11:16.661Z,5.67
2019-03-23T00:11:21.018Z,5.67
2019-03-23T00:11:25.413Z,5.66
2019-03-23T00:11:29.708Z,5.66
2019-03-23T00:11:33.998Z,5.67
2019-03-23T00:11:38.288Z,5.67
2019-03-23T00:11:42.623Z,5.66
2019-03-23T00:11:46.914Z,5.67
2019-03-23T00:11:51.203Z,5.66
2019-03-23T00:11:55.494Z,5.66
2019-03-23T00:11:59.786Z,5.66
2019-03-23T00:12:04.084Z,5.65
2019-03-23T00:12:08.375Z,5.65
2019-03-23T00:12:12.753Z,5.65
2019-03-23T00:12:17.063Z,5.65
2019-03-23T00:12:21.576Z,5.65
2019-03-23T00:12:25.879Z,5.66
2019-03-23T00:12:30.181Z,5.64
2019-03-23T00:12:34.469Z,5.64
2019-03-23T00:12:38.768Z,5.64
2019-03-23T00:12:43.064Z,5.64
2019-03-23T00:12:47.352Z,5.64
2019-03-23T00:12:51.653Z,5.64
2019-03-23T00:12:55.946Z,5.63
2019-03-23T00:13:00.239Z,5.64
2019-03-23T00:13:04.541Z,5.63
2019-03-23T00:13:08.834Z,5.64
2019-03-23T00:13:13.131Z,5.62
2019-03-23T00:13:17.430Z,5.63
2019-03-23T00:13:21.738Z,5.63
2019-03-23T00:13:26.042Z,5.63
2019-03-23T00:13:30.338Z,5.63
2019-03-23T00:13:34.338Z,5.62
2019-03-23T00:13:38.642Z,5.62
2019-03-23T00:13:42.836Z,5.62
2019-03-23T00:13:47.141Z,5.62
2019-03-23T00:13:51.456Z,5.62
2019-03-23T00:13:55.742Z,5.61
2019-03-23T00:13:59.935Z,5.61
2019-03-23T00:14:04.231Z,5.6
2019-03-23T00:14:08.519Z,5.59
2019-03-23T00:14:12.819Z,5.6
2019-03-23T00:14:16.913Z,5.6
2019-03-23T00:14:21.210Z,5.59
2019-03-23T00:14:25.506Z,5.59
2019-03-23T00:14:29.839Z,5.59
2019-03-23T00:14:34.137Z,5.59
2019-03-23T00:14:38.438Z,5.6
2019-03-23T00:14:42.722Z,5.59
2019-03-23T00:14:47.018Z,5.59
2019-03-23T00:14:51.323Z,5.59
2019-03-23T00:14:55.620Z,5.58
2019-03-23T00:14:59.917Z,5.59
2019-03-23T00:15:04.273Z,5.58
2019-03-23T00:15:08.570Z,5.57
2019-03-23T00:15:12.878Z,5.58
2019-03-23T00:15:17.069Z,5.57
2019-03-23T00:15:21.361Z,5.58
2019-03-23T00:15:25.677Z,5.57
2019-03-23T00:15:29.974Z,5.56
2019-03-23T00:15:34.257Z,5.56
2019-03-23T00:15:38.454Z,5.56
2019-03-23T00:15:42.747Z,5.57
2019-03-23T00:15:47.044Z,5.56
2019-03-23T00:15:51.338Z,5.56
2019-03-23T00:15:55.543Z,5.57
2019-03-23T00:15:59.836Z,5.55
2019-03-23T00:16:04.129Z,5.55
2019-03-23T00:16:08.423Z,5.56
2019-03-23T00:16:12.727Z,5.55
2019-03-23T00:16:17.020Z,5.55
2019-03-23T00:16:21.261Z,5.55
2019-03-23T00:16:25.555Z,5.53
2019-03-23T00:16:29.850Z,5.54
2019-03-23T00:16:34.135Z,5.54
2019-03-23T00:16:38.429Z,5.54
2019-03-23T00:16:42.722Z,5.55
2019-03-23T00:16:47.015Z,5.54
2019-03-23T00:16:51.310Z,5.53
2019-03-23T00:16:55.604Z,5.53
2019-03-23T00:16:59.889Z,5.54
2019-03-23T00:17:04.196Z,5.53
2019-03-23T00:17:08.491Z,5.53
2019-03-23T00:17:12.791Z,5.53
2019-03-23T00:17:17.083Z,5.53
2019-03-23T00:17:21.399Z,5.52
2019-03-23T00:17:25.688Z,5.52
2019-03-23T00:17:29.982Z,5.51
2019-03-23T00:17:34.280Z,5.52
2019-03-23T00:17:38.583Z,5.52
2019-03-23T00:17:42.880Z,5.51
2019-03-23T00:17:47.193Z,5.5
2019-03-23T00:17:51.485Z,5.51
2019-03-23T00:17:55.775Z,5.5
2019-03-23T00:18:00.017Z,5.49
2019-03-23T00:18:04.319Z,5.49
2019-03-23T00:18:08.609Z,5.49
2019-03-23T00:18:12.921Z,5.5
2019-03-23T00:18:17.215Z,5.49
2019-03-23T00:18:21.513Z,5.49
2019-03-23T00:18:25.812Z,5.49
2019-03-23T00:18:30.098Z,5.49
2019-03-23T00:18:34.411Z,5.49
2019-03-23T00:18:38.709Z,5.48
2019-03-23T00:18:43.010Z,5.49
2019-03-23T00:18:47.310Z,5.48
2019-03-23T00:18:51.597Z,5.48
2019-03-23T00:18:55.884Z,5.48
2019-03-23T00:19:00.191Z,5.47
2019-03-23T00:19:04.545Z,5.48
2019-03-23T00:19:08.837Z,5.47
2019-03-23T00:19:13.133Z,5.47
2019-03-23T00:19:17.429Z,5.47
2019-03-23T00:19:21.717Z,5.46
2019-03-23T00:19:26.019Z,5.46
2019-03-23T00:19:30.308Z,5.46
2019-03-23T00:19:34.661Z,5.46
2019-03-23T00:19:39.003Z,5.46
2019-03-23T00:19:43.288Z,5.45
2019-03-23T00:19:47.587Z,5.46
2019-03-23T00:19:51.879Z,5.44
2019-03-23T00:19:56.175Z,5.45
2019-03-23T00:20:00.443Z,5.45
2019-03-23T00:20:04.803Z,5.45
2019-03-23T00:20:09.117Z,5.44
2019-03-23T00:20:13.423Z,5.45
2019-03-23T00:20:17.729Z,5.44
2019-03-23T00:20:22.028Z,5.44
2019-03-23T00:20:26.327Z,5.44
2019-03-23T00:20:30.633Z,5.43
2019-03-23T00:20:34.926Z,5.43
2019-03-23T00:20:39.275Z,5.44
2019-03-23T00:20:43.578Z,5.44
2019-03-23T00:20:47.774Z,5.44
2019-03-23T00:20:52.088Z,5.44
2019-03-23T00:20:56.383Z,5.43
2019-03-23T00:21:00.595Z,5.42
2019-03-23T00:21:04.791Z,5.42
2019-03-23T00:21:09.080Z,5.43
2019-03-23T00:21:13.373Z,5.42
2019-03-23T00:21:17.682Z,5.42
2019-03-23T00:21:21.977Z,5.42
2019-03-23T00:21:26.287Z,5.41
2019-03-23T00:21:30.584Z,5.41
2019-03-23T00:21:34.886Z,5.41
2019-03-23T00:21:39.182Z,5.42
2019-03-23T00:21:43.486Z,5.41
2019-03-23T00:21:47.777Z,5.41
2019-03-23T00:21:52.070Z,5.4
2019-03-23T00:21:56.357Z,5.4
2019-03-23T00:22:00.560Z,5.41
2019-03-23T00:22:04.872Z,5.4
2019-03-23T00:22:09.165Z,5.41
2019-03-23T00:22:13.455Z,5.4
2019-03-23T00:22:17.758Z,5.41
2019-03-23T00:22:21.968Z,5.4
2019-03-23T00:22:26.263Z,5.4
2019-03-23T00:22:30.565Z,5.4
2019-03-23T00:22:34.861Z,5.4
2019-03-23T00:22:39.180Z,5.4
2019-03-23T00:22:43.374Z,5.39
2019-03-23T00:22:47.692Z,5.38
2019-03-23T00:22:51.988Z,5.39
2019-03-23T00:22:56.297Z,5.39
2019-03-23T00:23:00.590Z,5.4
2019-03-23T00:23:04.907Z,5.38
2019-03-23T00:23:09.202Z,5.39
2019-03-23T00:23:13.497Z,5.38
2019-03-23T00:23:17.785Z,5.38
2019-03-23T00:23:22.095Z,5.38
2019-03-23T00:23:26.393Z,5.38
2019-03-23T00:23:30.749Z,5.38
2019-03-23T00:23:35.067Z,5.38
2019-03-23T00:23:39.376Z,5.38
2019-03-23T00:23:43.682Z,5.37
2019-03-23T00:23:47.876Z,5.38
2019-03-23T00:23:52.212Z,5.37
2019-03-23T00:23:56.409Z,5.38
2019-03-23T00:24:00.709Z,5.37
2019-03-23T00:24:05.011Z,5.36
2019-03-23T00:24:09.310Z,5.36
2019-03-23T00:24:13.606Z,5.37
2019-03-23T00:24:17.905Z,5.36
2019-03-23T00:24:22.198Z,5.36
2019-03-23T00:24:26.492Z,5.36
2019-03-23T00:24:30.780Z,5.36
2019-03-23T00:24:35.070Z,5.37
2019-03-23T00:24:39.364Z,5.36
2019-03-23T00:24:43.658Z,5.36
2019-03-23T00:24:47.948Z,5.36
2019-03-23T00:24:52.270Z,5.36
2019-03-23T00:24:56.563Z,5.35
2019-03-23T00:25:00.771Z,5.35
2019-03-23T00:25:05.074Z,5.36
2019-03-23T00:25:09.395Z,5.34
2019-03-23T00:25:13.694Z,5.35
2019-03-23T00:25:17.997Z,5.35
2019-03-23T00:25:22.331Z,5.34
2019-03-23T00:25:26.631Z,5.35
2019-03-23T00:25:30.825Z,5.35
2019-03-23T00:25:35.135Z,5.35
2019-03-23T00:25:39.429Z,5.34
2019-03-23T00:25:43.736Z,5.35
2019-03-23T00:25:48.033Z,5.34
2019-03-23T00:25:52.226Z,5.35
2019-03-23T00:25:56.544Z,5.34
2019-03-23T00:26:00.836Z,5.34
2019-03-23T00:26:05.135Z,5.34
2019-03-23T00:26:09.422Z,5.33
2019-03-23T00:26:16.189Z,5.33
2019-03-23T00:26:20.402Z,5.33
2019-03-23T00:26:24.699Z,5.33
2019-03-23T00:26:29.036Z,5.33
2019-03-23T00:26:33.379Z,5.32
2019-03-23T00:26:37.671Z,5.33
2019-03-23T00:26:41.872Z,5.32
2019-03-23T00:26:46.165Z,5.32
2019-03-23T00:26:50.375Z,5.33
2019-03-23T00:26:54.672Z,5.34
2019-03-23T00:26:58.988Z,5.31
2019-03-23T00:27:03.283Z,5.32
2019-03-23T00:27:07.585Z,5.32
2019-03-23T00:27:11.886Z,5.33
2019-03-23T00:27:16.184Z,5.31
2019-03-23T00:27:20.381Z,5.34
2019-03-23T00:27:24.574Z,5.32
2019-03-23T00:27:28.868Z,5.32
2019-03-23T00:27:33.168Z,5.32
2019-03-23T00:27:37.478Z,5.31
2019-03-23T00:27:41.684Z,5.32
2019-03-23T00:27:45.970Z,5.31
2019-03-23T00:27:50.274Z,5.32
2019-03-23T00:27:54.577Z,5.31
2019-03-23T00:27:58.876Z,5.32
2019-03-23T00:28:03.196Z,5.3
2019-03-23T00:28:07.496Z,5.31
2019-03-23T00:28:11.802Z,5.3
2019-03-23T00:28:16.087Z,5.31
2019-03-23T00:28:20.388Z,5.31
2019-03-23T00:28:24.591Z,5.3
2019-03-23T00:28:28.886Z,5.3
2019-03-23T00:28:33.077Z,5.3
2019-03-23T00:28:37.384Z,5.29
2019-03-23T00:28:41.593Z,5.3
2019-03-23T00:28:45.908Z,5.29
2019-03-23T00:28:50.206Z,5.29
2019-03-23T00:28:54.511Z,5.29
2019-03-23T00:28:58.804Z,5.29
2019-03-23T00:29:03.111Z,5.29
2019-03-23T00:29:07.434Z,5.29
2019-03-23T00:29:11.641Z,5.28
2019-03-23T00:29:15.979Z,5.29
2019-03-23T00:29:20.279Z,5.29
2019-03-23T00:29:24.587Z,5.29
2019-03-23T00:29:28.794Z,5.28
2019-03-23T00:29:33.001Z,5.28
2019-03-23T00:29:37.204Z,5.28
2019-03-23T00:29:41.409Z,5.28
2019-03-23T00:29:45.729Z,5.28
2019-03-23T00:29:49.936Z,5.28
2019-03-23T00:29:54.131Z,5.28
2019-03-23T00:29:58.436Z,5.28
2019-03-23T00:30:02.993Z,5.28
2019-03-23T00:30:07.324Z,5.28
2019-03-23T00:30:11.642Z,5.27
2019-03-23T00:30:15.933Z,5.28
2019-03-23T00:30:20.236Z,5.27
2019-03-23T00:30:24.524Z,5.28
2019-03-23T00:30:28.730Z,5.28
2019-03-23T00:30:33.045Z,5.27
2019-03-23T00:30:37.238Z,5.27
2019-03-23T00:30:41.447Z,5.27
2019-03-23T00:30:45.739Z,5.26
2019-03-23T00:30:50.037Z,5.26
2019-03-23T00:30:54.346Z,5.27
2019-03-23T00:30:58.638Z,5.27
2019-03-23T00:31:02.945Z,5.26
2019-03-23T00:31:07.145Z,5.27
2019-03-23T00:31:11.487Z,5.26
2019-03-23T00:31:15.799Z,5.27
2019-03-23T00:31:20.021Z,5.25
2019-03-23T00:31:24.377Z,5.26
2019-03-23T00:31:28.674Z,5.26
2019-03-23T00:31:32.959Z,5.26
2019-03-23T00:31:37.308Z,5.26
2019-03-23T00:31:41.612Z,5.24
2019-03-23T00:31:45.811Z,5.26
2019-03-23T00:31:50.104Z,5.25
2019-03-23T00:31:54.399Z,5.25
2019-03-23T00:31:58.600Z,5.26
2019-03-23T00:32:03.045Z,5.26
2019-03-23T00:32:07.338Z,5.25
2019-03-23T00:32:11.533Z,5.25
2019-03-23T00:32:15.875Z,5.25
2019-03-23T00:32:20.167Z,5.25
2019-03-23T00:32:24.258Z,5.25
2019-03-23T00:32:28.555Z,5.24
2019-03-23T00:32:32.839Z,5.24
2019-03-23T00:32:37.133Z,5.25
2019-03-23T00:32:41.434Z,5.24
2019-03-23T00:32:45.726Z,5.24
2019-03-23T00:32:50.020Z,5.24
2019-03-23T00:32:54.308Z,5.25
2019-03-23T00:32:58.603Z,5.25
2019-03-23T00:33:02.894Z,5.24
2019-03-23T00:33:07.191Z,5.24
2019-03-23T00:33:11.491Z,5.24
2019-03-23T00:33:15.801Z,5.24
2019-03-23T00:33:20.128Z,5.24
2019-03-23T00:33:24.419Z,5.23
2019-03-23T00:33:28.645Z,5.24
2019-03-23T00:33:32.952Z,5.23
2019-03-23T00:33:37.242Z,5.23
2019-03-23T00:33:41.542Z,5.24
2019-03-23T00:33:45.832Z,5.24
2019-03-23T00:33:50.122Z,5.23
2019-03-23T00:33:54.427Z,5.24
2019-03-23T00:33:58.713Z,5.24
2019-03-23T00:34:03.001Z,5.23
2019-03-23T00:34:07.190Z,5.24
2019-03-23T00:34:11.488Z,5.23
2019-03-23T00:34:15.772Z,5.24
2019-03-23T00:34:20.126Z,5.22
2019-03-23T00:34:24.430Z,5.23
2019-03-23T00:34:28.775Z,5.23
2019-03-23T00:34:33.068Z,5.24
2019-03-23T00:34:37.274Z,5.22
2019-03-23T00:34:41.569Z,5.23
2019-03-23T00:34:45.886Z,5.23
2019-03-23T00:34:50.172Z,5.22
2019-03-23T00:34:54.476Z,5.24
2019-03-23T00:34:58.671Z,5.23
2019-03-23T00:35:03.233Z,5.23
2019-03-23T00:35:07.543Z,5.22
2019-03-23T00:35:11.854Z,5.23
2019-03-23T00:35:16.179Z,5.23
2019-03-23T00:35:20.379Z,5.23
2019-03-23T00:35:24.712Z,5.23
2019-03-23T00:35:28.903Z,5.23
2019-03-23T00:35:33.200Z,5.23
2019-03-23T00:35:37.500Z,5.22
2019-03-23T00:35:41.795Z,5.23
2019-03-23T00:35:46.087Z,5.22
2019-03-23T00:35:50.281Z,5.23
2019-03-23T00:35:54.373Z,5.22
2019-03-23T00:35:58.680Z,5.23
2019-03-23T00:36:02.981Z,5.23
2019-03-23T00:36:07.178Z,5.22
2019-03-23T00:36:11.470Z,5.22
2019-03-23T00:36:15.765Z,5.22
2019-03-23T00:36:20.054Z,5.23
2019-03-23T00:36:24.338Z,5.22
2019-03-23T00:36:28.668Z,5.23
2019-03-23T00:36:43.910Z,5.23
2019-03-23T00:36:48.227Z,5.23
2019-03-23T00:36:52.520Z,5.22
2019-03-23T00:36:56.719Z,5.23
2019-03-23T00:37:01.032Z,5.23
2019-03-23T00:37:05.235Z,5.22
2019-03-23T00:37:09.533Z,5.22
2019-03-23T00:37:13.824Z,5.23
2019-03-23T00:37:18.118Z,5.23
2019-03-23T00:37:22.417Z,5.22
2019-03-23T00:37:26.630Z,5.23
2019-03-23T00:37:30.873Z,5.23
2019-03-23T00:37:35.079Z,5.22
2019-03-23T00:37:39.386Z,5.23
2019-03-23T00:37:43.586Z,5.22
2019-03-23T00:37:47.888Z,5.23
2019-03-23T00:37:52.178Z,5.23
2019-03-23T00:37:56.522Z,5.23
2019-03-23T00:38:00.814Z,5.23
2019-03-23T00:38:05.181Z,5.23
2019-03-23T00:38:09.478Z,5.22
2019-03-23T00:38:13.679Z,5.23
2019-03-23T00:38:17.985Z,5.23
2019-03-23T00:38:22.074Z,5.22
2019-03-23T00:38:26.374Z,5.23
2019-03-23T00:38:30.576Z,5.23
2019-03-23T00:38:34.886Z,5.23
2019-03-23T00:38:39.083Z,5.24
2019-03-23T00:38:43.374Z,5.24
2019-03-23T00:38:47.664Z,5.23
2019-03-23T00:38:51.959Z,5.24
2019-03-23T00:38:56.249Z,5.24
2019-03-23T00:39:00.548Z,5.24
2019-03-23T00:39:04.843Z,5.24
2019-03-23T00:39:09.155Z,5.24
2019-03-23T00:39:13.458Z,5.25
2019-03-23T00:39:17.753Z,5.24
2019-03-23T00:39:21.994Z,5.24
2019-03-23T00:39:26.190Z,5.25
2019-03-23T00:39:30.484Z,5.24
2019-03-23T00:39:34.771Z,5.25
2019-03-23T00:39:39.095Z,5.25
2019-03-23T00:39:43.394Z,5.25
2019-03-23T00:39:47.690Z,5.25
2019-03-23T00:39:52.035Z,5.25
2019-03-23T00:39:56.334Z,5.25
2019-03-23T00:40:00.624Z,5.25
2019-03-23T00:40:04.919Z,5.25
2019-03-23T00:40:09.212Z,5.24
2019-03-23T00:40:13.509Z,5.25
2019-03-23T00:40:17.797Z,5.26
2019-03-23T00:40:22.094Z,5.24
2019-03-23T00:40:26.392Z,5.24
2019-03-23T00:40:30.683Z,5.25
2019-03-23T00:40:34.891Z,5.25
2019-03-23T00:40:39.220Z,5.26
2019-03-23T00:40:43.508Z,5.25
2019-03-23T00:40:50.009Z,5.26
2019-03-23T00:40:54.246Z,5.26
2019-03-23T00:40:58.491Z,5.25
2019-03-23T00:41:03.028Z,5.25
2019-03-23T00:41:07.225Z,5.25
2019-03-23T00:41:11.543Z,5.26
2019-03-23T00:41:15.882Z,5.26
2019-03-23T00:41:20.083Z,5.26
2019-03-23T00:41:24.377Z,5.26
2019-03-23T00:41:28.666Z,5.25
2019-03-23T00:41:32.999Z,5.26
2019-03-23T00:41:37.317Z,5.26
2019-03-23T00:41:41.659Z,5.25
2019-03-23T00:41:45.939Z,5.26
2019-03-23T00:41:50.233Z,5.26
2019-03-23T00:41:54.529Z,5.26
2019-03-23T00:41:58.818Z,5.26
2019-03-23T00:42:03.179Z,5.25
2019-03-23T00:42:07.289Z,5.26
2019-03-23T00:42:11.607Z,5.25
2019-03-23T00:42:15.893Z,5.25
2019-03-23T00:42:20.185Z,5.26
2019-03-23T00:42:24.381Z,5.26
2019-03-23T00:42:28.672Z,5.26
2019-03-23T00:42:32.961Z,5.26
2019-03-23T00:42:37.258Z,5.25
2019-03-23T00:42:41.558Z,5.26
2019-03-23T00:42:45.870Z,5.26
2019-03-23T00:42:50.161Z,5.25
2019-03-23T00:42:54.451Z,5.27
2019-03-23T00:42:58.745Z,5.26
2019-03-23T00:43:03.057Z,5.26
2019-03-23T00:43:07.370Z,5.26
2019-03-23T00:43:11.669Z,5.25
2019-03-23T00:43:15.958Z,5.26
2019-03-23T00:43:20.251Z,5.25
2019-03-23T00:43:24.541Z,5.26
2019-03-23T00:43:28.838Z,5.24
2019-03-23T00:43:33.133Z,5.26
2019-03-23T00:43:37.428Z,5.25
2019-03-23T00:43:41.622Z,5.26
2019-03-23T00:43:45.919Z,5.26
2019-03-23T00:43:50.239Z,5.25
2019-03-23T00:43:54.547Z,5.26
2019-03-23T00:43:58.744Z,5.26
2019-03-23T00:44:03.040Z,5.26
2019-03-23T00:44:09.657Z,5.25
2019-03-23T00:44:13.948Z,5.25
2019-03-23T00:44:18.247Z,5.26
2019-03-23T00:44:22.545Z,5.26
2019-03-23T00:44:26.846Z,5.26
2019-03-23T00:44:31.134Z,5.26
2019-03-23T00:44:35.428Z,5.25
2019-03-23T00:44:39.725Z,5.26
2019-03-23T00:44:44.020Z,5.26
2019-03-23T00:44:48.324Z,5.26
2019-03-23T00:44:52.647Z,5.26
2019-03-23T00:44:56.954Z,5.25
2019-03-23T00:45:01.164Z,5.26
2019-03-23T00:45:05.462Z,5.25
2019-03-23T00:45:09.772Z,5.26
2019-03-23T00:45:14.061Z,5.25
2019-03-23T00:45:18.262Z,5.25
2019-03-23T00:45:22.559Z,5.24
2019-03-23T00:45:26.846Z,5.25
2019-03-23T00:45:31.050Z,5.25
2019-03-23T00:45:35.342Z,5.24
2019-03-23T00:45:39.628Z,5.25
2019-03-23T00:45:43.920Z,5.25
2019-03-23T00:45:48.210Z,5.25
2019-03-23T00:45:52.502Z,5.24
2019-03-23T00:45:56.809Z,5.25
2019-03-23T00:46:01.103Z,5.25
2019-03-23T00:46:05.404Z,5.25
2019-03-23T00:46:09.711Z,5.24
2019-03-23T00:46:14.052Z,5.24
2019-03-23T00:46:18.352Z,5.24
2019-03-23T00:46:22.640Z,5.24
2019-03-23T00:46:26.932Z,5.24
2019-03-23T00:46:31.231Z,5.24
2019-03-23T00:46:35.515Z,5.24
2019-03-23T00:46:39.799Z,5.23
2019-03-23T00:46:44.090Z,5.24
2019-03-23T00:46:48.423Z,5.24
2019-03-23T00:46:52.724Z,5.24
2019-03-23T00:46:57.013Z,5.23
2019-03-23T00:47:01.340Z,5.24
2019-03-23T00:47:05.695Z,5.23
2019-03-23T00:47:09.892Z,5.23
2019-03-23T00:47:14.182Z,5.22
2019-03-23T00:47:18.480Z,5.24
2019-03-23T00:47:22.669Z,5.23
2019-03-23T00:47:26.968Z,5.23
2019-03-23T00:47:31.259Z,5.23
2019-03-23T00:47:35.558Z,5.23
2019-03-23T00:47:39.905Z,5.23
2019-03-23T00:47:44.205Z,5.23
2019-03-23T00:47:48.416Z,5.23
2019-03-23T00:47:52.717Z,5.23
2019-03-23T00:47:57.014Z,5.22
2019-03-23T00:48:01.326Z,5.23
2019-03-23T00:48:05.622Z,5.23
2019-03-23T00:48:09.912Z,5.22
2019-03-23T00:48:14.202Z,5.22
2019-03-23T00:48:18.492Z,5.23
2019-03-23T00:48:22.688Z,5.24
2019-03-23T00:48:26.829Z,5.22
2019-03-23T00:48:31.123Z,5.23
2019-03-23T00:48:35.325Z,5.22
2019-03-23T00:48:39.616Z,5.22
2019-03-23T00:48:43.906Z,5.22
2019-03-23T00:48:48.202Z,5.22
2019-03-23T00:48:52.509Z,5.22
2019-03-23T00:48:56.716Z,5.23
2019-03-23T00:49:01.007Z,5.23
2019-03-23T00:49:05.327Z,5.22
2019-03-23T00:49:09.621Z,5.22
2019-03-23T00:49:13.912Z,5.23
2019-03-23T00:49:18.211Z,5.22
2019-03-23T00:49:22.503Z,5.21
2019-03-23T00:49:26.850Z,5.23
2019-03-23T00:49:31.141Z,5.22
2019-03-23T00:49:35.343Z,5.22
2019-03-23T00:49:39.657Z,5.22
2019-03-23T00:49:43.857Z,5.22
2019-03-23T00:49:48.152Z,5.21
2019-03-23T00:49:52.444Z,5.22
2019-03-23T00:49:56.728Z,5.21
2019-03-23T00:50:01.035Z,5.21
2019-03-23T00:50:05.349Z,5.21
2019-03-23T00:50:09.675Z,5.21
2019-03-23T00:50:13.984Z,5.21
2019-03-23T00:50:18.185Z,5.21
2019-03-23T00:50:22.471Z,5.2
2019-03-23T00:50:26.763Z,5.2
2019-03-23T00:50:31.078Z,5.21
2019-03-23T00:50:35.282Z,5.21
2019-03-23T00:50:39.588Z,5.21
2019-03-23T00:50:43.686Z,5.2
2019-03-23T00:50:47.988Z,5.2
2019-03-23T00:50:52.286Z,5.2
2019-03-23T00:50:56.586Z,5.2
2019-03-23T00:51:00.885Z,5.2
2019-03-23T00:51:05.187Z,5.2
2019-03-23T00:51:09.494Z,5.2
2019-03-23T00:51:13.714Z,5.19
2019-03-23T00:51:18.009Z,5.2
2019-03-23T00:51:22.241Z,5.2
2019-03-23T00:51:26.538Z,5.19
2019-03-23T00:51:30.841Z,5.2
2019-03-23T00:51:35.132Z,5.18
2019-03-23T00:51:39.426Z,5.19
2019-03-23T00:51:43.733Z,5.19
2019-03-23T00:51:48.029Z,5.19
2019-03-23T00:51:52.315Z,5.19
2019-03-23T00:51:56.611Z,5.19
2019-03-23T00:52:00.899Z,5.19
2019-03-23T00:52:05.343Z,5.18
2019-03-23T00:52:09.636Z,5.18
2019-03-23T00:52:13.938Z,5.18
2019-03-23T00:52:18.249Z,5.18
2019-03-23T00:52:22.539Z,5.18
2019-03-23T00:52:26.731Z,5.18
2019-03-23T00:52:30.936Z,5.18
2019-03-23T00:52:35.236Z,5.18
2019-03-23T00:52:39.552Z,5.18
2019-03-23T00:52:43.866Z,5.18
2019-03-23T00:52:48.155Z,5.18
2019-03-23T00:52:52.485Z,5.18
2019-03-23T00:52:56.790Z,5.17
2019-03-23T00:53:01.080Z,5.18
2019-03-23T00:53:05.374Z,5.17
2019-03-23T00:53:09.573Z,5.18
2019-03-23T00:53:13.868Z,5.18
2019-03-23T00:53:18.225Z,5.17
2019-03-23T00:53:22.513Z,5.17
2019-03-23T00:53:26.808Z,5.16
2019-03-23T00:53:31.114Z,5.17
2019-03-23T00:53:35.405Z,5.15
2019-03-23T00:53:39.706Z,5.16
2019-03-23T00:53:44.000Z,5.16
2019-03-23T00:53:48.288Z,5.16
2019-03-23T00:53:52.576Z,5.16
2019-03-23T00:53:56.921Z,5.16
2019-03-23T00:54:01.116Z,5.16
2019-03-23T00:54:05.418Z,5.16
2019-03-23T00:54:09.723Z,5.16
2019-03-23T00:54:14.013Z,5.15
2019-03-23T00:54:18.332Z,5.16
2019-03-23T00:54:22.635Z,5.16
2019-03-23T00:54:26.848Z,5.15
2019-03-23T00:54:31.149Z,5.15
2019-03-23T00:54:35.435Z,5.15
2019-03-23T00:54:39.727Z,5.15
2019-03-23T00:54:44.022Z,5.14
2019-03-23T00:54:48.314Z,5.15
2019-03-23T00:54:52.608Z,5.14
2019-03-23T00:54:56.800Z,5.14
2019-03-23T00:55:01.177Z,5.14
2019-03-23T00:55:05.477Z,5.14
2019-03-23T00:55:09.794Z,5.14
2019-03-23T00:55:14.098Z,5.13
2019-03-23T00:55:18.390Z,5.13
2019-03-23T00:55:22.689Z,5.14
2019-03-23T00:55:26.996Z,5.13
2019-03-23T00:55:31.195Z,5.14
2019-03-23T00:55:35.499Z,5.13
2019-03-23T00:55:39.797Z,5.13
2019-03-23T00:55:44.095Z,5.12
2019-03-23T00:55:48.392Z,5.12
2019-03-23T00:55:52.586Z,5.12
2019-03-23T00:55:56.885Z,5.12
2019-03-23T00:56:01.181Z,5.12
2019-03-23T00:56:05.473Z,5.11
2019-03-23T00:56:09.772Z,5.11
2019-03-23T00:56:16.456Z,5.12
2019-03-23T00:56:20.816Z,5.12
2019-03-23T00:56:25.127Z,5.11
2019-03-23T00:56:29.449Z,5.11
2019-03-23T00:56:33.768Z,5.1
2019-03-23T00:56:38.058Z,5.11
2019-03-23T00:56:42.344Z,5.11
2019-03-23T00:56:46.632Z,5.11
2019-03-23T00:56:50.922Z,5.1
2019-03-23T00:56:55.220Z,5.1
2019-03-23T00:56:59.522Z,5.11
2019-03-23T00:57:03.818Z,5.11
2019-03-23T00:57:08.112Z,5.09
2019-03-23T00:57:12.461Z,5.1
2019-03-23T00:57:16.746Z,5.1
2019-03-23T00:57:21.061Z,5.09
2019-03-23T00:57:25.257Z,5.09
2019-03-23T00:57:29.560Z,5.09
2019-03-23T00:57:33.883Z,5.09
2019-03-23T00:57:38.178Z,5.09
2019-03-23T00:57:42.387Z,5.09
2019-03-23T00:57:46.688Z,5.08
2019-03-23T00:57:50.975Z,5.07
2019-03-23T00:57:55.267Z,5.08
2019-03-23T00:57:59.570Z,5.08
2019-03-23T00:58:03.772Z,5.07
2019-03-23T00:58:07.971Z,5.07
2019-03-23T00:58:12.304Z,5.07
2019-03-23T00:58:16.595Z,5.07